Terminal Aerodrome Forecast
Issued by NWS Twin Cities, MN

Home | Current Version | Previous Version | Text Only | Print | Product List | Glossary Off
Versions: 1 2 3 4 5 6 7 8 9 10 11 12 13 14 15 16 17 18 19 20 21 22 23

000
FTUS43 KMPX 190749 AAA
TAFEAU
TAF AMD
KEAU 190749Z 1908/2006 15003KT 2SM BR FEW008
     FM191800 17008KT 4SM BR FEW010
     FM200100 16003KT 2SM BR OVC007=

USA.gov is the U.S. government's official web portal to all federal, state and local government web resources and services.